sensor_id;sensor_type;location;lat;lon;timestamp;pressure;altitude;pressure_sealevel;temperature;humidity
54978;BME280;40873;47.522;19.106;2023-03-24T00:00:17;100126.34;;;9.94;88.81
54978;BME280;40873;47.522;19.106;2023-03-24T00:03:06;100129.44;;;9.86;88.84
54978;BME280;40873;47.522;19.106;2023-03-24T00:05:33;100126.34;;;9.94;89.16
54978;BME280;40873;47.522;19.106;2023-03-24T00:08:00;100119.38;;;9.93;88.85
54978;BME280;40873;47.522;19.106;2023-03-24T00:10:29;100115.53;;;9.84;89.69
54978;BME280;40873;47.522;19.106;2023-03-24T00:13:00;100122.59;;;9.83;89.31
54978;BME280;40873;47.522;19.106;2023-03-24T00:15:27;100116.09;;;9.89;89.87
54978;BME280;40873;47.522;19.106;2023-03-24T00:17:54;100112.31;;;9.93;89.15
54978;BME280;40873;47.522;19.106;2023-03-24T00:20:24;100111.94;;;9.85;90.19
54978;BME280;40873;47.522;19.106;2023-03-24T00:22:54;100111.00;;;9.86;90.46
54978;BME280;40873;47.522;19.106;2023-03-24T00:25:29;100105.47;;;9.76;90.10
54978;BME280;40873;47.522;19.106;2023-03-24T00:28:02;100100.34;;;9.73;91.16
54978;BME280;40873;47.522;19.106;2023-03-24T00:30:32;100098.59;;;9.74;91.26
54978;BME280;40873;47.522;19.106;2023-03-24T00:33:00;100101.31;;;9.72;90.54
54978;BME280;40873;47.522;19.106;2023-03-24T00:35:28;100096.22;;;9.69;90.72
54978;BME280;40873;47.522;19.106;2023-03-24T00:37:54;100094.06;;;9.90;89.19
54978;BME280;40873;47.522;19.106;2023-03-24T00:40:22;100088.59;;;9.79;90.42
54978;BME280;40873;47.522;19.106;2023-03-24T00:42:49;100087.50;;;9.83;89.73
54978;BME280;40873;47.522;19.106;2023-03-24T00:45:18;100083.53;;;9.76;90.18
54978;BME280;40873;47.522;19.106;2023-03-24T00:47:46;100086.16;;;9.76;90.09
54978;BME280;40873;47.522;19.106;2023-03-24T00:50:17;100078.25;;;9.90;88.61
54978;BME280;40873;47.522;19.106;2023-03-24T00:52:46;100080.53;;;9.82;89.26
54978;BME280;40873;47.522;19.106;2023-03-24T00:55:15;100072.63;;;9.82;88.91
54978;BME280;40873;47.522;19.106;2023-03-24T00:57:44;100077.97;;;9.80;89.34
54978;BME280;40873;47.522;19.106;2023-03-24T01:00:23;100071.56;;;9.70;89.92
54978;BME280;40873;47.522;19.106;2023-03-24T01:02:52;100066.31;;;9.70;90.49
54978;BME280;40873;47.522;19.106;2023-03-24T01:05:22;100070.06;;;9.66;90.64
54978;BME280;40873;47.522;19.106;2023-03-24T01:07:50;100060.00;;;9.73;89.99
54978;BME280;40873;47.522;19.106;2023-03-24T01:10:23;100051.56;;;9.68;90.61
54978;BME280;40873;47.522;19.106;2023-03-24T01:12:55;100059.44;;;9.68;90.69
54978;BME280;40873;47.522;19.106;2023-03-24T01:15:25;100055.31;;;9.64;91.16
54978;BME280;40873;47.522;19.106;2023-03-24T01:17:53;100052.47;;;9.52;92.04
54978;BME280;40873;47.522;19.106;2023-03-24T01:20:22;100047.66;;;9.59;91.75
54978;BME280;40873;47.522;19.106;2023-03-24T01:22:49;100039.38;;;9.51;92.76
54978;BME280;40873;47.522;19.106;2023-03-24T01:25:21;100032.63;;;9.47;92.46
54978;BME280;40873;47.522;19.106;2023-03-24T01:27:49;100037.81;;;9.48;92.20
54978;BME280;40873;47.522;19.106;2023-03-24T01:30:20;100036.94;;;9.33;92.92
54978;BME280;40873;47.522;19.106;2023-03-24T01:32:48;100032.31;;;9.23;93.90
54978;BME280;40873;47.522;19.106;2023-03-24T01:35:17;100037.06;;;9.32;93.52
54978;BME280;40873;47.522;19.106;2023-03-24T01:37:44;100040.91;;;9.41;93.04
54978;BME280;40873;47.522;19.106;2023-03-24T01:40:17;100037.97;;;9.31;93.36
54978;BME280;40873;47.522;19.106;2023-03-24T01:42:44;100028.09;;;9.34;94.05
54978;BME280;40873;47.522;19.106;2023-03-24T01:50:53;100026.69;;;9.29;94.34
54978;BME280;40873;47.522;19.106;2023-03-24T01:53:22;100026.22;;;9.37;93.36
54978;BME280;40873;47.522;19.106;2023-03-24T01:55:51;100022.47;;;9.26;95.16
54978;BME280;40873;47.522;19.106;2023-03-24T01:58:19;100018.13;;;9.25;94.46
54978;BME280;40873;47.522;19.106;2023-03-24T02:00:46;100025.72;;;9.16;95.25
54978;BME280;40873;47.522;19.106;2023-03-24T02:03:17;100021.66;;;9.10;95.02
54978;BME280;40873;47.522;19.106;2023-03-24T02:05:49;100015.28;;;9.14;95.10
54978;BME280;40873;47.522;19.106;2023-03-24T02:11:06;100023.09;;;9.16;95.48
54978;BME280;40873;47.522;19.106;2023-03-24T02:13:33;100019.88;;;9.11;94.48
54978;BME280;40873;47.522;19.106;2023-03-24T02:24:56;100019.72;;;9.14;95.85
54978;BME280;40873;47.522;19.106;2023-03-24T02:35:46;100023.97;;;8.86;97.73
54978;BME280;40873;47.522;19.106;2023-03-24T02:43:58;100023.22;;;8.84;97.75
54978;BME280;40873;47.522;19.106;2023-03-24T02:46:37;100026.59;;;8.86;97.91
54978;BME280;40873;47.522;19.106;2023-03-24T02:49:48;100015.69;;;8.78;99.29
54978;BME280;40873;47.522;19.106;2023-03-24T02:52:21;100015.69;;;8.78;99.07
54978;BME280;40873;47.522;19.106;2023-03-24T02:54:59;100009.09;;;8.71;100.00
54978;BME280;40873;47.522;19.106;2023-03-24T03:00:28;99994.53;;;8.79;100.00
54978;BME280;40873;47.522;19.106;2023-03-24T03:03:02;99991.91;;;8.79;100.00
54978;BME280;40873;47.522;19.106;2023-03-24T03:05:35;99996.13;;;8.82;99.75
54978;BME280;40873;47.522;19.106;2023-03-24T03:08:08;99989.09;;;8.83;99.39
54978;BME280;40873;47.522;19.106;2023-03-24T03:10:41;99993.78;;;8.77;100.00
54978;BME280;40873;47.522;19.106;2023-03-24T03:13:19;99993.25;;;8.87;99.50
54978;BME280;40873;47.522;19.106;2023-03-24T03:15:53;99984.88;;;8.80;99.52
54978;BME280;40873;47.522;19.106;2023-03-24T03:20:51;99983.88;;;8.67;99.63
54978;BME280;40873;47.522;19.106;2023-03-24T03:23:28;99990.56;;;8.72;100.00
54978;BME280;40873;47.522;19.106;2023-03-24T03:26:00;100001.69;;;8.77;100.00
54978;BME280;40873;47.522;19.106;2023-03-24T03:28:36;99988.44;;;8.79;100.00
54978;BME280;40873;47.522;19.106;2023-03-24T03:31:10;99994.28;;;8.84;99.19
54978;BME280;40873;47.522;19.106;2023-03-24T03:33:49;99991.91;;;8.79;99.99
54978;BME280;40873;47.522;19.106;2023-03-24T03:36:25;99995.16;;;8.69;99.92
54978;BME280;40873;47.522;19.106;2023-03-24T03:39:14;99994.91;;;8.73;100.00
54978;BME280;40873;47.522;19.106;2023-03-24T03:41:42;99996.69;;;8.73;100.00
54978;BME280;40873;47.522;19.106;2023-03-24T03:44:10;99984.25;;;8.61;100.00
54978;BME280;40873;47.522;19.106;2023-03-24T03:46:37;99982.44;;;8.61;100.00
54978;BME280;40873;47.522;19.106;2023-03-24T03:49:05;99984.25;;;8.61;100.00
54978;BME280;40873;47.522;19.106;2023-03-24T03:51:34;99989.19;;;8.51;100.00
54978;BME280;40873;47.522;19.106;2023-03-24T03:54:09;99980.38;;;8.52;100.00
54978;BME280;40873;47.522;19.106;2023-03-24T03:56:38;99984.19;;;8.46;100.00
54978;BME280;40873;47.522;19.106;2023-03-24T03:59:05;99981.84;;;8.42;100.00
54978;BME280;40873;47.522;19.106;2023-03-24T04:01:35;99976.97;;;8.34;100.00
54978;BME280;40873;47.522;19.106;2023-03-24T04:31:17;99979.63;;;8.03;100.00
54978;BME280;40873;47.522;19.106;2023-03-24T04:34:11;99972.84;;;7.98;100.00
54978;BME280;40873;47.522;19.106;2023-03-24T04:36:42;99980.72;;;7.98;100.00
54978;BME280;40873;47.522;19.106;2023-03-24T04:39:15;99983.03;;;8.05;100.00
54978;BME280;40873;47.522;19.106;2023-03-24T04:41:44;99982.88;;;8.08;100.00
54978;BME280;40873;47.522;19.106;2023-03-24T04:44:14;99971.91;;;8.00;100.00
54978;BME280;40873;47.522;19.106;2023-03-24T04:46:43;99980.91;;;8.11;100.00
54978;BME280;40873;47.522;19.106;2023-03-24T04:49:10;99977.94;;;8.02;100.00
54978;BME280;40873;47.522;19.106;2023-03-24T04:51:37;99985.41;;;8.09;100.00
54978;BME280;40873;47.522;19.106;2023-03-24T04:54:04;99990.81;;;8.22;100.00
54978;BME280;40873;47.522;19.106;2023-03-24T04:56:40;99983.28;;;8.16;100.00
54978;BME280;40873;47.522;19.106;2023-03-24T04:59:09;99993.88;;;8.14;100.00
54978;BME280;40873;47.522;19.106;2023-03-24T05:01:39;99992.41;;;8.24;100.00
54978;BME280;40873;47.522;19.106;2023-03-24T05:04:06;99982.44;;;8.15;100.00
54978;BME280;40873;47.522;19.106;2023-03-24T05:06:33;99988.28;;;8.05;100.00
54978;BME280;40873;47.522;19.106;2023-03-24T05:09:01;99985.72;;;8.19;100.00
54978;BME280;40873;47.522;19.106;2023-03-24T05:11:27;99981.66;;;8.13;100.00
54978;BME280;40873;47.522;19.106;2023-03-24T05:13:54;99991.31;;;8.13;100.00
54978;BME280;40873;47.522;19.106;2023-03-24T05:16:21;99996.13;;;8.20;100.00
54978;BME280;40873;47.522;19.106;2023-03-24T05:18:49;99997.16;;;8.34;100.00
54978;BME280;40873;47.522;19.106;2023-03-24T05:21:16;99991.38;;;8.27;100.00
54978;BME280;40873;47.522;19.106;2023-03-24T05:23:43;99998.47;;;8.42;100.00
54978;BME280;40873;47.522;19.106;2023-03-24T05:26:09;99989.09;;;8.52;100.00
54978;BME280;40873;47.522;19.106;2023-03-24T05:28:37;99994.25;;;8.54;100.00
54978;BME280;40873;47.522;19.106;2023-03-24T05:31:03;99993.50;;;8.52;100.00
54978;BME280;40873;47.522;19.106;2023-03-24T05:33:31;99993.56;;;8.66;100.00
54978;BME280;40873;47.522;19.106;2023-03-24T05:35:58;99994.16;;;8.71;100.00
54978;BME280;40873;47.522;19.106;2023-03-24T05:38:25;100006.16;;;8.75;100.00
54978;BME280;40873;47.522;19.106;2023-03-24T05:40:58;100003.78;;;8.87;100.00
54978;BME280;40873;47.522;19.106;2023-03-24T05:43:26;99998.72;;;8.98;100.00
54978;BME280;40873;47.522;19.106;2023-03-24T05:45:53;100002.59;;;9.06;100.00
54978;BME280;40873;47.522;19.106;2023-03-24T05:48:22;99999.31;;;9.17;100.00
54978;BME280;40873;47.522;19.106;2023-03-24T05:50:48;100007.41;;;9.28;100.00
54978;BME280;40873;47.522;19.106;2023-03-24T05:53:16;100011.00;;;9.42;98.64
54978;BME280;40873;47.522;19.106;2023-03-24T05:55:44;100007.53;;;9.55;96.38
54978;BME280;40873;47.522;19.106;2023-03-24T05:58:12;100013.34;;;9.75;93.20
54978;BME280;40873;47.522;19.106;2023-03-24T06:00:39;100011.44;;;9.91;93.64
54978;BME280;40873;47.522;19.106;2023-03-24T06:03:06;100007.81;;;10.06;91.99
54978;BME280;40873;47.522;19.106;2023-03-24T06:05:36;100009.34;;;10.25;90.03
54978;BME280;40873;47.522;19.106;2023-03-24T06:08:03;100010.78;;;10.43;88.54
54978;BME280;40873;47.522;19.106;2023-03-24T06:10:30;100017.69;;;10.58;87.16
54978;BME280;40873;47.522;19.106;2023-03-24T06:12:57;100008.66;;;10.75;83.45
54978;BME280;40873;47.522;19.106;2023-03-24T06:15:24;100005.41;;;10.84;80.77
54978;BME280;40873;47.522;19.106;2023-03-24T06:17:53;100005.66;;;11.07;77.90
54978;BME280;40873;47.522;19.106;2023-03-24T06:20:22;100005.56;;;11.08;77.50
54978;BME280;40873;47.522;19.106;2023-03-24T06:22:49;100010.31;;;11.29;75.95
54978;BME280;40873;47.522;19.106;2023-03-24T06:25:17;100009.78;;;11.36;74.26
54978;BME280;40873;47.522;19.106;2023-03-24T06:27:47;100009.97;;;11.33;73.97
54978;BME280;40873;47.522;19.106;2023-03-24T06:30:15;100012.53;;;11.35;73.45
54978;BME280;40873;47.522;19.106;2023-03-24T06:32:44;100016.13;;;11.34;73.44
54978;BME280;40873;47.522;19.106;2023-03-24T06:35:14;100010.75;;;11.35;73.80
54978;BME280;40873;47.522;19.106;2023-03-24T06:37:44;100014.13;;;11.50;72.56
54978;BME280;40873;47.522;19.106;2023-03-24T06:40:12;100016.84;;;11.61;71.02
54978;BME280;40873;47.522;19.106;2023-03-24T06:42:41;100017.50;;;11.65;71.66
54978;BME280;40873;47.522;19.106;2023-03-24T06:45:08;100022.03;;;11.88;69.50
54978;BME280;40873;47.522;19.106;2023-03-24T06:47:36;100021.59;;;11.82;69.91
54978;BME280;40873;47.522;19.106;2023-03-24T06:50:04;100016.53;;;11.78;70.93
54978;BME280;40873;47.522;19.106;2023-03-24T06:52:33;100009.44;;;11.92;70.06
54978;BME280;40873;47.522;19.106;2023-03-24T06:55:01;100007.63;;;12.05;69.32
54978;BME280;40873;47.522;19.106;2023-03-24T06:57:31;100007.22;;;11.98;69.10
54978;BME280;40873;47.522;19.106;2023-03-24T06:59:58;100009.63;;;12.01;70.63
54978;BME280;40873;47.522;19.106;2023-03-24T07:02:25;100000.09;;;12.12;69.34
54978;BME280;40873;47.522;19.106;2023-03-24T07:05:01;99999.41;;;12.21;69.38
54978;BME280;40873;47.522;19.106;2023-03-24T07:07:32;100006.06;;;12.50;66.52
54978;BME280;40873;47.522;19.106;2023-03-24T07:10:03;99999.19;;;12.48;66.03
54978;BME280;40873;47.522;19.106;2023-03-24T07:12:31;99997.78;;;12.55;67.20
54978;BME280;40873;47.522;19.106;2023-03-24T07:14:58;99994.97;;;12.69;65.15
54978;BME280;40873;47.522;19.106;2023-03-24T07:17:25;99994.63;;;12.74;65.10
54978;BME280;40873;47.522;19.106;2023-03-24T07:19:52;99990.19;;;12.85;64.46
54978;BME280;40873;47.522;19.106;2023-03-24T07:22:22;99981.19;;;12.99;65.33
54978;BME280;40873;47.522;19.106;2023-03-24T07:24:51;99982.72;;;13.26;62.84
54978;BME280;40873;47.522;19.106;2023-03-24T07:27:20;99983.59;;;13.37;62.72
54978;BME280;40873;47.522;19.106;2023-03-24T07:29:47;99980.38;;;13.56;62.95
54978;BME280;40873;47.522;19.106;2023-03-24T07:32:14;99971.41;;;13.68;64.82
54978;BME280;40873;47.522;19.106;2023-03-24T07:34:41;99971.41;;;13.91;61.49
54978;BME280;40873;47.522;19.106;2023-03-24T07:37:09;99963.59;;;14.33;58.99
54978;BME280;40873;47.522;19.106;2023-03-24T07:39:37;99958.50;;;14.41;59.24
54978;BME280;40873;47.522;19.106;2023-03-24T07:42:04;99951.34;;;14.52;59.93
54978;BME280;40873;47.522;19.106;2023-03-24T07:44:32;99956.25;;;14.68;58.76
54978;BME280;40873;47.522;19.106;2023-03-24T07:46:58;99961.25;;;14.83;57.32
54978;BME280;40873;47.522;19.106;2023-03-24T07:49:26;99968.09;;;15.06;56.46
54978;BME280;40873;47.522;19.106;2023-03-24T07:51:56;99967.75;;;15.20;55.66
54978;BME280;40873;47.522;19.106;2023-03-24T07:54:24;99962.22;;;15.33;54.23
54978;BME280;40873;47.522;19.106;2023-03-24T07:56:52;99971.72;;;15.05;55.32
54978;BME280;40873;47.522;19.106;2023-03-24T07:59:19;99958.09;;;15.19;55.24
54978;BME280;40873;47.522;19.106;2023-03-24T08:01:46;99962.09;;;15.34;54.47
54978;BME280;40873;47.522;19.106;2023-03-24T08:04:20;99958.91;;;15.71;53.94
54978;BME280;40873;47.522;19.106;2023-03-24T08:06:47;99964.81;;;15.75;52.58
54978;BME280;40873;47.522;19.106;2023-03-24T08:09:15;99955.47;;;15.80;53.11
54978;BME280;40873;47.522;19.106;2023-03-24T08:11:42;99947.09;;;16.04;52.12
54978;BME280;40873;47.522;19.106;2023-03-24T08:14:09;99947.09;;;16.04;51.85
54978;BME280;40873;47.522;19.106;2023-03-24T08:16:36;99942.22;;;16.19;51.93
54978;BME280;40873;47.522;19.106;2023-03-24T08:19:04;99939.88;;;16.45;51.66
54978;BME280;40873;47.522;19.106;2023-03-24T08:21:32;99931.47;;;16.30;50.45
54978;BME280;40873;47.522;19.106;2023-03-24T08:23:59;99929.50;;;16.52;50.86
54978;BME280;40873;47.522;19.106;2023-03-24T08:26:26;99927.28;;;16.76;50.32
54978;BME280;40873;47.522;19.106;2023-03-24T08:28:53;99924.03;;;16.92;49.59
54978;BME280;40873;47.522;19.106;2023-03-24T08:31:20;99918.00;;;16.61;49.68
54978;BME280;40873;47.522;19.106;2023-03-24T08:33:47;99922.63;;;16.59;50.19
54978;BME280;40873;47.522;19.106;2023-03-24T08:36:17;99916.59;;;16.47;50.09
54978;BME280;40873;47.522;19.106;2023-03-24T08:38:44;99917.31;;;16.39;50.74
54978;BME280;40873;47.522;19.106;2023-03-24T08:41:13;99909.59;;;16.56;50.09
54978;BME280;40873;47.522;19.106;2023-03-24T08:43:40;99912.66;;;16.99;50.10
54978;BME280;40873;47.522;19.106;2023-03-24T08:46:08;99909.03;;;16.91;49.99
54978;BME280;40873;47.522;19.106;2023-03-24T08:48:37;99909.06;;;16.71;49.41
54978;BME280;40873;47.522;19.106;2023-03-24T08:51:11;99901.06;;;16.71;50.33
54978;BME280;40873;47.522;19.106;2023-03-24T08:53:38;99908.91;;;16.73;49.28
54978;BME280;40873;47.522;19.106;2023-03-24T08:56:05;99899.22;;;16.91;49.15
54978;BME280;40873;47.522;19.106;2023-03-24T08:58:33;99899.34;;;16.61;50.08
54978;BME280;40873;47.522;19.106;2023-03-24T09:01:00;99900.47;;;16.68;50.41
54978;BME280;40873;47.522;19.106;2023-03-24T09:03:28;99906.63;;;16.88;50.13
54978;BME280;40873;47.522;19.106;2023-03-24T09:05:55;99900.63;;;17.23;49.45
54978;BME280;40873;47.522;19.106;2023-03-24T09:08:25;99896.81;;;17.35;49.30
54978;BME280;40873;47.522;19.106;2023-03-24T09:10:52;99906.75;;;16.96;48.96
54978;BME280;40873;47.522;19.106;2023-03-24T09:13:19;99897.19;;;17.13;48.74
54978;BME280;40873;47.522;19.106;2023-03-24T09:15:57;99893.56;;;17.04;49.59
54978;BME280;40873;47.522;19.106;2023-03-24T09:18:25;99890.41;;;17.56;47.89
54978;BME280;40873;47.522;19.106;2023-03-24T09:20:53;99887.16;;;17.52;47.44
54978;BME280;40873;47.522;19.106;2023-03-24T09:23:21;99887.78;;;17.46;46.79
54978;BME280;40873;47.522;19.106;2023-03-24T09:25:52;99890.22;;;17.94;46.30
54978;BME280;40873;47.522;19.106;2023-03-24T09:28:22;99886.03;;;18.10;47.02
54978;BME280;40873;47.522;19.106;2023-03-24T09:30:50;99884.41;;;18.34;46.12
54978;BME280;40873;47.522;19.106;2023-03-24T09:33:17;99880.69;;;18.10;46.15
54978;BME280;40873;47.522;19.106;2023-03-24T09:35:44;99883.78;;;17.87;46.73
54978;BME280;40873;47.522;19.106;2023-03-24T09:38:11;99885.38;;;17.52;47.69
54978;BME280;40873;47.522;19.106;2023-03-24T09:40:39;99881.84;;;17.79;47.15
54978;BME280;40873;47.522;19.106;2023-03-24T09:45:57;99876.00;;;18.47;45.70
54978;BME280;40873;47.522;19.106;2023-03-24T09:48:34;99861.25;;;18.79;45.45
54978;BME280;40873;47.522;19.106;2023-03-24T09:51:07;99860.94;;;18.64;45.38
54978;BME280;40873;47.522;19.106;2023-03-24T09:53:43;99857.84;;;18.51;46.02
54978;BME280;40873;47.522;19.106;2023-03-24T09:56:18;99847.84;;;18.71;45.69
54978;BME280;40873;47.522;19.106;2023-03-24T10:01:40;99830.38;;;19.18;44.36
54978;BME280;40873;47.522;19.106;2023-03-24T10:04:16;99834.13;;;19.34;44.48
54978;BME280;40873;47.522;19.106;2023-03-24T10:06:44;99834.31;;;19.40;44.63
54978;BME280;40873;47.522;19.106;2023-03-24T10:12:03;99825.03;;;19.61;43.19
54978;BME280;40873;47.522;19.106;2023-03-24T10:15:02;99818.06;;;19.92;42.94
54978;BME280;40873;47.522;19.106;2023-03-24T10:25:24;99816.69;;;19.64;43.48
54978;BME280;40873;47.522;19.106;2023-03-24T10:28:11;99801.22;;;19.50;43.85
54978;BME280;40873;47.522;19.106;2023-03-24T10:30:43;99798.31;;;19.93;43.33
54978;BME280;40873;47.522;19.106;2023-03-24T10:33:14;99803.50;;;19.95;43.11
54978;BME280;40873;47.522;19.106;2023-03-24T10:35:49;99799.66;;;20.30;41.71
54978;BME280;40873;47.522;19.106;2023-03-24T10:38:20;99790.94;;;20.69;42.15
54978;BME280;40873;47.522;19.106;2023-03-24T10:40:48;99783.09;;;21.15;40.65
54978;BME280;40873;47.522;19.106;2023-03-24T10:43:18;99787.34;;;20.93;41.07
54978;BME280;40873;47.522;19.106;2023-03-24T10:45:48;99786.69;;;20.91;40.37
54978;BME280;40873;47.522;19.106;2023-03-24T10:48:44;99790.16;;;21.07;40.04
54978;BME280;40873;47.522;19.106;2023-03-24T10:51:18;99783.97;;;20.99;39.56
54978;BME280;40873;47.522;19.106;2023-03-24T10:53:46;99788.31;;;21.08;39.49
54978;BME280;40873;47.522;19.106;2023-03-24T10:56:16;99790.78;;;21.18;38.93
54978;BME280;40873;47.522;19.106;2023-03-24T10:58:44;99786.25;;;21.57;38.25
54978;BME280;40873;47.522;19.106;2023-03-24T11:01:26;99788.06;;;21.26;38.77
54978;BME280;40873;47.522;19.106;2023-03-24T11:03:59;99793.53;;;21.01;39.03
54978;BME280;40873;47.522;19.106;2023-03-24T11:06:27;99793.13;;;21.29;39.17
54978;BME280;40873;47.522;19.106;2023-03-24T11:09:09;99778.69;;;21.30;38.89
54978;BME280;40873;47.522;19.106;2023-03-24T11:11:37;99771.94;;;22.11;37.68
54978;BME280;40873;47.522;19.106;2023-03-24T11:14:21;99770.34;;;21.56;38.06
54978;BME280;40873;47.522;19.106;2023-03-24T11:16:51;99752.53;;;21.24;38.80
54978;BME280;40873;47.522;19.106;2023-03-24T11:19:23;99758.66;;;21.41;38.33
54978;BME280;40873;47.522;19.106;2023-03-24T11:21:51;99750.28;;;21.67;38.17
54978;BME280;40873;47.522;19.106;2023-03-24T11:24:23;99755.13;;;21.71;37.24
54978;BME280;40873;47.522;19.106;2023-03-24T11:27:01;99747.00;;;21.56;37.69
54978;BME280;40873;47.522;19.106;2023-03-24T11:29:33;99740.84;;;22.16;37.38
54978;BME280;40873;47.522;19.106;2023-03-24T11:32:12;99731.97;;;22.31;36.61
54978;BME280;40873;47.522;19.106;2023-03-24T11:34:45;99734.88;;;21.60;37.35
54978;BME280;40873;47.522;19.106;2023-03-24T11:37:20;99725.03;;;21.76;36.85
54978;BME280;40873;47.522;19.106;2023-03-24T11:42:43;99724.38;;;21.74;36.79
54978;BME280;40873;47.522;19.106;2023-03-24T11:45:37;99720.38;;;22.15;36.03
54978;BME280;40873;47.522;19.106;2023-03-24T11:51:02;99699.91;;;22.74;34.81
54978;BME280;40873;47.522;19.106;2023-03-24T11:53:52;99697.72;;;22.33;35.73
54978;BME280;40873;47.522;19.106;2023-03-24T11:56:41;99694.16;;;23.06;34.96
54978;BME280;40873;47.522;19.106;2023-03-24T12:05:20;99684.69;;;23.68;33.55
54978;BME280;40873;47.522;19.106;2023-03-24T12:13:13;99663.34;;;23.09;33.87
54978;BME280;40873;47.522;19.106;2023-03-24T12:21:07;99654.09;;;22.96;33.55
54978;BME280;40873;47.522;19.106;2023-03-24T12:26:28;99640.59;;;22.75;33.68
54978;BME280;40873;47.522;19.106;2023-03-24T12:37:00;99628.00;;;23.33;32.56
54978;BME280;40873;47.522;19.106;2023-03-24T12:42:28;99612.38;;;25.43;30.11
54978;BME280;40873;47.522;19.106;2023-03-24T12:55:47;99594.91;;;26.70;27.58
54978;BME280;40873;47.522;19.106;2023-03-24T12:58:22;99580.88;;;27.24;27.28
54978;BME280;40873;47.522;19.106;2023-03-24T13:01:04;99594.06;;;26.05;28.41
54978;BME280;40873;47.522;19.106;2023-03-24T13:03:43;99604.28;;;25.50;29.33
54978;BME280;40873;47.522;19.106;2023-03-24T13:06:19;99592.59;;;23.79;31.16
54978;BME280;40873;47.522;19.106;2023-03-24T13:11:33;99586.44;;;24.26;31.22
54978;BME280;40873;47.522;19.106;2023-03-24T13:14:03;99575.47;;;24.69;30.59
54978;BME280;40873;47.522;19.106;2023-03-24T13:16:36;99572.38;;;24.79;30.26
54978;BME280;40873;47.522;19.106;2023-03-24T13:19:16;99559.31;;;24.76;30.27
54978;BME280;40873;47.522;19.106;2023-03-24T13:21:45;99552.44;;;26.19;28.88
54978;BME280;40873;47.522;19.106;2023-03-24T13:24:14;99556.81;;;26.78;27.80
54978;BME280;40873;47.522;19.106;2023-03-24T13:38:01;99562.59;;;24.23;30.65
54978;BME280;40873;47.522;19.106;2023-03-24T13:40:37;99561.09;;;23.30;32.20
54978;BME280;40873;47.522;19.106;2023-03-24T13:43:20;99548.94;;;22.91;33.34
54978;BME280;40873;47.522;19.106;2023-03-24T13:46:00;99560.78;;;22.97;32.83
54978;BME280;40873;47.522;19.106;2023-03-24T13:48:40;99541.09;;;22.75;33.19
54978;BME280;40873;47.522;19.106;2023-03-24T13:51:18;99545.34;;;24.59;30.57
54978;BME280;40873;47.522;19.106;2023-03-24T14:01:35;99536.00;;;27.60;26.21
54978;BME280;40873;47.522;19.106;2023-03-24T14:04:24;99527.38;;;28.91;24.88
54978;BME280;40873;47.522;19.106;2023-03-24T14:06:55;99522.97;;;29.09;24.93
54978;BME280;40873;47.522;19.106;2023-03-24T14:09:25;99515.94;;;28.23;25.58
54978;BME280;40873;47.522;19.106;2023-03-24T14:14:36;99522.41;;;25.82;28.36
54978;BME280;40873;47.522;19.106;2023-03-24T14:17:22;99509.59;;;26.29;28.17
54978;BME280;40873;47.522;19.106;2023-03-24T14:22:48;99514.50;;;25.01;29.55
54978;BME280;40873;47.522;19.106;2023-03-24T14:27:50;99515.09;;;24.70;30.34
54978;BME280;40873;47.522;19.106;2023-03-24T14:30:29;99509.16;;;24.33;30.80
54978;BME280;40873;47.522;19.106;2023-03-24T14:32:59;99511.84;;;23.36;32.65
54978;BME280;40873;47.522;19.106;2023-03-24T14:35:33;99506.22;;;23.03;33.11
54978;BME280;40873;47.522;19.106;2023-03-24T14:38:17;99516.22;;;23.09;33.45
54978;BME280;40873;47.522;19.106;2023-03-24T14:40:57;99510.03;;;22.73;33.78
54978;BME280;40873;47.522;19.106;2023-03-24T14:49:02;99512.84;;;21.69;35.29
54978;BME280;40873;47.522;19.106;2023-03-24T14:54:05;99503.88;;;21.92;35.23
54978;BME280;40873;47.522;19.106;2023-03-24T14:56:38;99500.50;;;22.34;34.71
54978;BME280;40873;47.522;19.106;2023-03-24T14:59:18;99499.47;;;22.71;34.05
54978;BME280;40873;47.522;19.106;2023-03-24T15:01:50;99499.38;;;22.64;34.15
54978;BME280;40873;47.522;19.106;2023-03-24T15:04:21;99503.41;;;22.17;35.04
54978;BME280;40873;47.522;19.106;2023-03-24T15:06:51;99491.19;;;22.00;35.05
54978;BME280;40873;47.522;19.106;2023-03-24T15:09:18;99489.84;;;22.40;34.52
54978;BME280;40873;47.522;19.106;2023-03-24T15:11:46;99483.59;;;22.19;35.09
54978;BME280;40873;47.522;19.106;2023-03-24T15:14:24;99482.72;;;22.03;35.11
54978;BME280;40873;47.522;19.106;2023-03-24T15:16:54;99479.63;;;22.14;35.22
54978;BME280;40873;47.522;19.106;2023-03-24T15:19:27;99484.69;;;21.95;35.44
54978;BME280;40873;47.522;19.106;2023-03-24T15:21:59;99472.13;;;21.66;35.95
54978;BME280;40873;47.522;19.106;2023-03-24T15:24:31;99466.56;;;21.67;36.03
54978;BME280;40873;47.522;19.106;2023-03-24T15:29:40;99478.75;;;21.40;36.38
54978;BME280;40873;47.522;19.106;2023-03-24T15:32:21;99466.84;;;21.28;36.88
54978;BME280;40873;47.522;19.106;2023-03-24T15:34:59;99470.38;;;21.20;36.68
54978;BME280;40873;47.522;19.106;2023-03-24T15:37:37;99473.06;;;21.20;36.88
54978;BME280;40873;47.522;19.106;2023-03-24T15:42:54;99469.78;;;21.33;36.60
54978;BME280;40873;47.522;19.106;2023-03-24T15:47:57;99469.91;;;21.84;35.76
54978;BME280;40873;47.522;19.106;2023-03-24T15:50:39;99473.97;;;21.95;35.51
54978;BME280;40873;47.522;19.106;2023-03-24T15:55:41;99472.84;;;21.89;35.42
54978;BME280;40873;47.522;19.106;2023-03-24T15:58:26;99470.25;;;21.37;36.73
54978;BME280;40873;47.522;19.106;2023-03-24T16:00:57;99470.56;;;21.19;36.67
54978;BME280;40873;47.522;19.106;2023-03-24T16:03:25;99461.22;;;21.15;37.09
54978;BME280;40873;47.522;19.106;2023-03-24T16:05:54;99467.16;;;20.87;37.18